createdAt,value
2019-05-25T00:02:09.180Z,6.65
2019-05-25T00:04:38.927Z,5.37
2019-05-25T00:07:09.955Z,5.87
2019-05-25T00:09:39.674Z,5.72
2019-05-25T00:12:09.425Z,6.00
2019-05-25T00:14:39.116Z,5.78
2019-05-25T00:17:08.725Z,5.60
2019-05-25T00:19:38.415Z,5.70
2019-05-25T00:22:08.053Z,5.55
2019-05-25T00:24:37.852Z,5.72
2019-05-25T00:27:09.100Z,4.80
2019-05-25T00:29:38.932Z,5.22
2019-05-25T00:32:08.734Z,5.40
2019-05-25T00:34:39.830Z,5.65
2019-05-25T00:37:09.703Z,5.15
2019-05-25T00:39:39.415Z,5.12
2019-05-25T00:42:09.087Z,5.25
2019-05-25T00:44:38.905Z,5.40
2019-05-25T00:47:11.058Z,5.83
2019-05-25T00:49:40.785Z,5.60
2019-05-25T00:52:10.543Z,5.30
2019-05-25T00:54:40.189Z,5.12
2019-05-25T00:57:09.911Z,4.90
2019-05-25T00:59:39.697Z,5.37
2019-05-25T01:02:09.522Z,4.87
2019-05-25T01:04:39.256Z,4.70
2019-05-25T01:07:08.988Z,4.90
2019-05-25T01:09:38.647Z,5.20
2019-05-25T01:12:08.381Z,4.83
2019-05-25T01:14:38.119Z,4.80
2019-05-25T01:17:07.934Z,5.08
2019-05-25T01:19:37.719Z,5.53
2019-05-25T01:22:07.578Z,5.78
2019-05-25T01:24:44.472Z,5.12
2019-05-25T01:27:08.745Z,5.53
2019-05-25T01:29:38.475Z,5.50
2019-05-25T01:32:08.509Z,6.20
2019-05-25T01:34:38.202Z,5.72
2019-05-25T01:37:08.004Z,6.05
2019-05-25T01:39:37.631Z,4.87
2019-05-25T01:42:07.433Z,5.80
2019-05-25T01:44:37.264Z,4.97
2019-05-25T01:47:07.009Z,5.47
2019-05-25T01:49:36.717Z,4.95
2019-05-25T01:52:06.490Z,4.70
2019-05-25T01:54:36.385Z,4.87
2019-05-25T01:57:06.353Z,5.12
2019-05-25T01:59:35.998Z,4.62
2019-05-25T02:02:05.639Z,4.60
2019-05-25T02:04:35.181Z,5.22
2019-05-25T02:07:05.186Z,5.17
2019-05-25T02:09:35.196Z,4.92
2019-05-25T02:12:05.860Z,4.28
2019-05-25T02:14:35.729Z,4.72
2019-05-25T02:17:05.472Z,5.05
2019-05-25T02:19:36.043Z,5.85
2019-05-25T02:22:08.011Z,4.55
2019-05-25T02:24:37.667Z,4.67
2019-05-25T02:27:07.415Z,5.25
2019-05-25T02:29:37.274Z,4.55
2019-05-25T02:32:07.048Z,5.05
2019-05-25T02:34:37.284Z,5.30
2019-05-25T02:37:07.501Z,4.67
2019-05-25T02:39:37.311Z,4.62
2019-05-25T02:42:07.206Z,4.05
2019-05-25T02:44:36.936Z,4.67
2019-05-25T02:47:07.069Z,4.35
2019-05-25T02:49:36.847Z,5.17
2019-05-25T02:52:06.519Z,4.50
2019-05-25T02:54:36.208Z,4.60
2019-05-25T02:57:05.885Z,4.25
2019-05-25T02:59:35.669Z,4.03
2019-05-25T03:02:05.412Z,4.60
2019-05-25T03:04:35.077Z,4.80
2019-05-25T03:07:05.032Z,4.40
2019-05-25T03:09:36.945Z,4.30
2019-05-25T03:12:08.553Z,4.65
2019-05-25T03:14:38.398Z,4.55
2019-05-25T03:17:09.645Z,4.65
2019-05-25T03:19:39.286Z,5.17
2019-05-25T03:22:10.523Z,5.47
2019-05-25T03:24:40.954Z,5.15
2019-05-25T03:27:11.041Z,5.30
2019-05-25T03:29:41.164Z,5.03
2019-05-25T03:32:11.554Z,5.10
2019-05-25T03:34:41.778Z,5.12
2019-05-25T03:37:11.994Z,4.80
2019-05-25T03:39:42.547Z,5.00
2019-05-25T03:42:12.823Z,4.62
2019-05-25T03:44:43.136Z,4.17
2019-05-25T03:47:14.332Z,4.17
2019-05-25T03:49:46.988Z,4.10
2019-05-25T03:52:17.524Z,4.78
2019-05-25T03:54:48.026Z,3.92
2019-05-25T03:57:19.837Z,4.03
2019-05-25T03:59:50.184Z,4.10
2019-05-25T04:02:20.255Z,4.17
2019-05-25T04:04:50.719Z,4.22
2019-05-25T04:07:20.828Z,4.25
2019-05-25T04:09:50.952Z,4.42
2019-05-25T04:12:21.374Z,4.37
2019-05-25T04:14:51.745Z,4.90
2019-05-25T04:17:22.082Z,4.47
2019-05-25T04:19:52.439Z,4.17
2019-05-25T04:22:22.823Z,4.70
2019-05-25T04:24:54.385Z,4.25
2019-05-25T04:27:24.415Z,4.37
2019-05-25T04:29:54.740Z,4.85
2019-05-25T04:32:25.610Z,4.45
2019-05-25T04:34:55.988Z,5.08
2019-05-25T04:37:26.231Z,5.20
2019-05-25T04:39:56.589Z,5.10
2019-05-25T04:42:26.953Z,5.28
2019-05-25T04:44:57.359Z,5.20
2019-05-25T04:47:27.740Z,6.20
2019-05-25T04:49:58.155Z,6.60
2019-05-25T04:52:28.265Z,6.47
2019-05-25T04:54:58.507Z,5.80
2019-05-25T04:57:28.820Z,6.05
2019-05-25T04:59:58.915Z,6.97
2019-05-25T05:02:29.441Z,8.98
2019-05-25T05:04:59.819Z,8.35
2019-05-25T05:07:30.125Z,6.62
2019-05-25T05:10:03.245Z,7.85
2019-05-25T05:12:33.557Z,6.95
2019-05-25T05:15:06.007Z,7.62
2019-05-25T05:17:36.624Z,7.95
2019-05-25T05:20:10.648Z,7.22
2019-05-25T05:22:40.938Z,7.83
2019-05-25T05:25:12.177Z,7.50
2019-05-25T05:27:43.949Z,7.22
2019-05-25T05:30:14.441Z,7.35
2019-05-25T05:32:44.700Z,7.67
2019-05-25T05:35:14.939Z,8.05
2019-05-25T05:37:45.748Z,8.13
2019-05-25T05:40:16.171Z,7.55
2019-05-25T05:42:52.723Z,9.80
2019-05-25T05:45:22.966Z,10.23
2019-05-25T05:47:56.053Z,10.95
2019-05-25T05:50:26.275Z,11.08
2019-05-25T05:52:59.802Z,10.58
2019-05-25T05:55:34.568Z,9.98
2019-05-25T16:25:57.781Z,1.10
2019-05-25T16:28:28.181Z,1.47
2019-05-25T16:30:59.183Z,1.20
2019-05-25T16:33:29.573Z,0.95
2019-05-25T16:36:00.863Z,1.10
2019-05-25T16:38:31.197Z,1.07
2019-05-25T16:41:01.529Z,1.15
2019-05-25T16:43:31.906Z,1.05
2019-05-25T16:46:02.316Z,1.10
2019-05-25T16:48:33.039Z,1.20
2019-05-25T16:51:03.340Z,0.88
2019-05-25T16:53:33.474Z,1.20
2019-05-25T16:56:04.303Z,1.60
2019-05-25T16:58:34.385Z,1.50
2019-05-25T17:01:05.337Z,1.70
2019-05-25T17:03:36.198Z,2.35
2019-05-25T17:06:07.217Z,1.80
2019-05-25T17:08:37.695Z,1.70
2019-05-25T17:11:08.254Z,1.90
2019-05-25T17:13:38.904Z,1.65
2019-05-25T17:16:09.294Z,1.40
2019-05-25T17:18:40.312Z,1.50
2019-05-25T17:21:10.895Z,1.47
2019-05-25T17:23:41.660Z,1.50
2019-05-25T17:26:12.247Z,1.70
2019-05-25T17:28:42.730Z,1.60
2019-05-25T17:31:12.948Z,1.87
2019-05-25T17:33:46.389Z,1.60
2019-05-25T17:36:16.585Z,1.75
2019-05-25T17:38:46.952Z,1.47
2019-05-25T17:41:17.268Z,2.92
2019-05-25T17:43:47.379Z,5.30
2019-05-25T17:46:17.770Z,2.67
2019-05-25T17:48:48.195Z,1.65
2019-05-25T17:51:18.693Z,1.52
2019-05-25T17:53:49.155Z,1.42
2019-05-25T17:56:19.730Z,1.45
2019-05-25T17:58:50.293Z,1.12
2019-05-25T18:01:21.064Z,1.35
2019-05-25T18:04:05.568Z,1.27
2019-05-25T18:06:24.309Z,1.67
2019-05-25T18:08:55.065Z,2.10
2019-05-25T18:11:25.868Z,1.67
2019-05-25T18:13:56.448Z,1.82
2019-05-25T18:16:26.954Z,1.90
2019-05-25T18:18:57.328Z,2.00
2019-05-25T18:21:28.169Z,2.22
2019-05-25T18:23:58.578Z,2.33
2019-05-25T18:26:28.950Z,2.20
2019-05-25T18:28:59.265Z,2.58
2019-05-25T18:31:29.591Z,2.60
2019-05-25T18:33:59.954Z,2.85
2019-05-25T18:36:30.533Z,3.00
2019-05-25T18:39:01.104Z,3.17
2019-05-25T18:41:31.548Z,3.20
2019-05-25T18:44:02.183Z,3.25
2019-05-25T18:46:33.069Z,3.05
2019-05-25T18:49:03.861Z,3.60
2019-05-25T18:51:34.478Z,4.00
2019-05-25T18:54:05.041Z,3.62
2019-05-25T18:56:35.762Z,3.90
2019-05-25T18:59:06.362Z,4.50
2019-05-25T19:01:36.980Z,4.80
2019-05-25T19:04:07.478Z,5.80
2019-05-25T19:06:37.819Z,5.55
2019-05-25T19:09:11.246Z,5.65
2019-05-25T19:11:41.843Z,5.80
2019-05-25T19:14:12.157Z,5.85
2019-05-25T19:16:42.605Z,6.42
2019-05-25T19:19:13.308Z,6.80
2019-05-25T19:21:43.993Z,6.20
2019-05-25T19:24:14.493Z,6.55
2019-05-25T19:26:44.724Z,7.40
2019-05-25T19:29:15.290Z,7.08
2019-05-25T19:31:46.223Z,7.67
2019-05-25T19:34:16.926Z,6.92
2019-05-25T19:36:47.380Z,7.42
2019-05-25T19:39:18.270Z,7.62
2019-05-25T19:41:48.598Z,7.08
2019-05-25T19:44:19.137Z,7.87
2019-05-25T19:46:49.491Z,7.75
2019-05-25T19:49:19.488Z,8.43
2019-05-25T19:51:49.389Z,7.95
2019-05-25T19:54:20.071Z,8.33
2019-05-25T19:56:49.755Z,9.18
2019-05-25T19:59:19.556Z,8.75
2019-05-25T20:01:49.291Z,8.85
2019-05-25T20:04:18.972Z,9.25
2019-05-25T20:06:48.668Z,8.25
2019-05-25T20:09:18.485Z,9.03
2019-05-25T20:11:48.219Z,9.48
2019-05-25T20:14:18.113Z,8.80
2019-05-25T20:16:48.040Z,9.33
2019-05-25T20:19:17.730Z,8.85
2019-05-25T20:21:47.885Z,8.58
2019-05-25T20:24:17.665Z,8.83
2019-05-25T20:26:47.610Z,8.90
2019-05-25T20:29:17.504Z,8.90
2019-05-25T20:31:47.215Z,9.03
2019-05-25T20:34:16.814Z,9.45
2019-05-25T20:36:46.609Z,9.85
2019-05-25T20:39:16.537Z,9.50
2019-05-25T20:41:46.410Z,9.28
2019-05-25T20:44:16.084Z,9.28
2019-05-25T20:46:45.949Z,9.75
2019-05-25T20:49:15.763Z,9.98
2019-05-25T20:51:45.707Z,9.93
2019-05-25T20:54:15.549Z,10.68
2019-05-25T20:56:46.821Z,10.90
2019-05-25T20:59:16.533Z,10.38
2019-05-25T21:01:46.255Z,10.65
2019-05-25T21:04:16.080Z,10.03
2019-05-25T21:06:45.815Z,10.25
2019-05-25T21:09:16.127Z,10.93
2019-05-25T21:11:46.002Z,11.48
2019-05-25T21:14:16.013Z,10.95
2019-05-25T21:16:45.887Z,11.18
2019-05-25T21:19:15.552Z,11.22
2019-05-25T21:21:45.315Z,11.88
2019-05-25T21:24:15.050Z,12.80
2019-05-25T21:26:45.074Z,13.03
2019-05-25T21:29:14.843Z,11.53
2019-05-25T21:31:44.612Z,11.53
2019-05-25T21:34:14.261Z,13.62
2019-05-25T21:36:43.869Z,12.85
2019-05-25T21:39:13.611Z,14.00
2019-05-25T21:41:43.517Z,12.70
2019-05-25T21:44:13.316Z,14.00
2019-05-25T21:46:42.941Z,13.60
2019-05-25T21:49:12.683Z,15.10
2019-05-25T21:51:42.317Z,14.80
2019-05-25T21:54:12.227Z,15.15
2019-05-25T21:56:41.983Z,16.07
2019-05-25T21:59:11.765Z,16.77
2019-05-25T22:01:41.822Z,15.53
2019-05-25T22:04:11.725Z,17.23
2019-05-25T22:06:41.432Z,15.88
2019-05-25T22:09:11.236Z,16.48
2019-05-25T22:11:40.948Z,16.73
2019-05-25T22:14:10.936Z,18.00
2019-05-25T22:16:40.934Z,18.70
2019-05-25T22:19:10.846Z,17.45
2019-05-25T22:21:40.803Z,17.42
2019-05-25T22:24:10.592Z,19.45
2019-05-25T22:26:40.229Z,19.07
2019-05-25T22:29:09.926Z,19.35
2019-05-25T22:31:39.740Z,18.17
2019-05-25T22:34:09.479Z,19.37
2019-05-25T22:36:41.085Z,18.90
2019-05-25T22:39:10.827Z,19.40
2019-05-25T22:41:40.603Z,18.98
2019-05-25T22:44:10.225Z,18.48
2019-05-25T22:46:39.983Z,18.45
2019-05-25T22:49:09.769Z,17.80
2019-05-25T22:51:39.686Z,17.80
2019-05-25T22:54:09.392Z,18.67
2019-05-25T22:56:39.465Z,18.02
2019-05-25T22:59:09.429Z,17.70
2019-05-25T23:01:39.109Z,16.17
2019-05-25T23:04:09.017Z,16.90
2019-05-25T23:06:38.822Z,16.32
2019-05-25T23:09:09.289Z,16.45
2019-05-25T23:11:38.839Z,17.35
2019-05-25T23:14:09.948Z,16.62
2019-05-25T23:16:39.939Z,16.57
2019-05-25T23:19:09.684Z,17.25
2019-05-25T23:21:39.599Z,17.02
2019-05-25T23:24:09.333Z,16.07
2019-05-25T23:26:39.092Z,16.30
2019-05-25T23:29:08.954Z,16.80
2019-05-25T23:31:38.955Z,16.87
2019-05-25T23:34:08.787Z,16.97
2019-05-25T23:36:38.585Z,17.07
2019-05-25T23:39:08.506Z,17.27
2019-05-25T23:41:38.570Z,17.37
2019-05-25T23:44:08.270Z,17.77
2019-05-25T23:46:38.407Z,17.90
2019-05-25T23:49:08.237Z,18.02
2019-05-25T23:51:38.198Z,19.17
2019-05-25T23:54:07.933Z,19.77
2019-05-25T23:56:37.634Z,19.55
2019-05-25T23:59:07.440Z,19.70
